Lakeview, Arkansas
Current Conditions -  °F | °C
As of 10:53 AM on Friday 24 Oct 2014 (Local Time) from KBPK Reporting Station
Clear Clear  
Wind Chill: 63°   Ceiling: Unl
Heat Index: 63°   Visibility: 9mi
Dew Point: 53°   Wind: 0mph
Humidity: 70%   Direction: NA
Pressure: 30.16"   Gusts: NA
Location:  36.37°N, 92.55°W
Report Text: KBPK 241553Z AUTO 00000KT 9SM CLR 17/12 A3016 RMK AO2 SLP209 T01720117
Loading
Personal Weather Stations






























Interactive Weather Map
Tropical Storm Tracking
New forecast layout! Learn more

10-Day Weather Forecast

Advertisements
Track Severe Weather on mobile